Time;durP1;ratioP1;P1;durP2;ratioP2;P2;SDS_P1;SDS_P2;PMS_P1;PMS_P2;Temp;Humidity;BMP_temperature;BMP_pressure;BME280_temperature;BME280_humidity;BME280_pressure;Samples;Min_cycle;Max_cycle;Signal;HPM_P1;HPM_P2
2022/09/02 00:02:31;;;;;;;1.38;0.90;;;;;;;12.79;73.95;101462.75;6040705;28;20050;-64
2022/09/02 00:05:28;;;;;;;1.73;0.80;;;;;;;12.78;73.63;101453.09;6048191;28;20041;-64
2022/09/02 00:08:23;;;;;;;1.92;0.70;;;;;;;12.79;73.61;101464.59;6045858;28;20068;-64
2022/09/02 00:11:21;;;;;;;0.98;0.73;;;;;;;12.69;73.67;101451.28;6045576;28;20116;-64
2022/09/02 00:14:26;;;;;;;1.17;0.70;;;;;;;12.78;73.81;101453.09;6046862;28;20033;-63
2022/09/02 00:17:22;;;;;;;4.47;0.77;;;;;;;12.91;73.31;101450.97;6047743;28;20182;-64
2022/09/02 00:20:17;;;;;;;1.35;0.90;;;;;;;12.88;73.00;101442.44;6032331;28;20030;-65
2022/09/02 00:23:14;;;;;;;1.95;0.90;;;;;;;12.71;73.25;101453.81;6047743;28;20133;-63
2022/09/02 00:26:10;;;;;;;1.80;0.70;;;;;;;12.52;73.97;101452.84;6048193;28;20032;-64
2022/09/02 00:29:06;;;;;;;0.90;0.70;;;;;;;12.44;74.61;101449.19;6047476;28;20042;-63
2022/09/02 00:32:01;;;;;;;1.88;0.88;;;;;;;12.30;75.40;101446.94;6032341;28;20030;-65
2022/09/02 00:34:57;;;;;;;1.23;0.77;;;;;;;12.47;75.62;101456.91;6045104;28;20025;-64
2022/09/02 00:37:52;;;;;;;2.53;0.90;;;;;;;12.23;76.06;101440.53;6044995;28;20034;-65
2022/09/02 00:40:49;;;;;;;2.00;0.90;;;;;;;12.43;75.99;101453.69;6036200;28;20425;-63
2022/09/02 00:43:54;;;;;;;3.17;0.90;;;;;;;12.38;75.70;101453.25;6044791;28;20041;-63
2022/09/02 00:46:49;;;;;;;2.88;0.80;;;;;;;12.24;76.06;101440.38;6047206;28;20060;-63
2022/09/02 00:49:49;;;;;;;2.67;0.90;;;;;;;12.32;76.02;101450.31;6046837;28;20022;-64
2022/09/02 00:52:47;;;;;;;3.75;0.90;;;;;;;12.27;76.67;101448.06;6033782;28;20088;-64
2022/09/02 00:55:46;;;;;;;2.03;0.90;;;;;;;12.16;76.71;101439.38;6046572;28;20034;-63
2022/09/02 00:58:42;;;;;;;0.98;0.90;;;;;;;12.11;76.87;101446.94;6045878;28;20554;-64
2022/09/02 01:01:37;;;;;;;1.00;0.80;;;;;;;12.02;76.95;101437.09;6044707;28;20045;-63
2022/09/02 01:04:34;;;;;;;2.00;0.90;;;;;;;12.12;77.04;101453.94;6040120;28;20042;-64
2022/09/02 01:07:35;;;;;;;1.55;0.85;;;;;;;12.05;77.26;101448.31;6045284;28;20033;-63
2022/09/02 01:10:33;;;;;;;2.92;0.90;;;;;;;12.13;76.87;101429.00;6039847;28;20121;-64
2022/09/02 01:13:30;;;;;;;1.23;0.75;;;;;;;12.10;76.67;101429.28;6040701;28;20033;-63
2022/09/02 01:16:30;;;;;;;1.15;0.80;;;;;;;12.21;77.06;101431.81;6046181;28;20067;-63
2022/09/02 01:19:30;;;;;;;5.97;1.13;;;;;;;12.20;76.84;101435.47;6061452;28;20034;-63
2022/09/02 01:22:28;;;;;;;4.35;1.00;;;;;;;12.20;77.04;101422.19;6044978;28;20041;-64
2022/09/02 01:25:26;;;;;;;2.35;1.10;;;;;;;12.25;76.28;101425.25;6041670;28;20769;-64
2022/09/02 01:28:22;;;;;;;1.35;0.73;;;;;;;12.14;77.05;101420.06;6041898;28;20473;-64
2022/09/02 01:31:17;;;;;;;1.88;0.82;;;;;;;12.04;76.95;101414.72;6040536;28;20069;-64
2022/09/02 01:34:12;;;;;;;1.90;0.90;;;;;;;12.01;77.49;101435.44;6041606;28;20232;-63
2022/09/02 01:37:08;;;;;;;3.22;0.80;;;;;;;11.89;77.69;101421.44;6046708;28;20109;-63
2022/09/02 01:40:07;;;;;;;2.17;1.10;;;;;;;11.90;78.14;101423.13;6044355;28;20048;-64
2022/09/02 01:43:07;;;;;;;8.32;1.00;;;;;;;11.96;78.30;101424.38;6042446;28;20057;-64
2022/09/02 01:46:02;;;;;;;4.30;0.95;;;;;;;11.75;78.45;101413.84;6034795;28;20092;-65
2022/09/02 01:48:57;;;;;;;2.40;0.83;;;;;;;11.83;78.50;101422.81;6046495;28;20038;-63
2022/09/02 01:51:53;;;;;;;1.13;0.87;;;;;;;11.87;78.55;101421.59;6033546;28;20029;-64
2022/09/02 01:54:49;;;;;;;2.03;1.00;;;;;;;11.91;78.31;101412.34;6039644;28;20713;-63
2022/09/02 01:57:46;;;;;;;1.67;1.02;;;;;;;11.83;78.06;101406.88;6042999;28;20037;-63
2022/09/02 02:00:41;;;;;;;3.10;0.90;;;;;;;11.70;79.21;101395.66;6040540;28;20062;-64
2022/09/02 02:03:38;;;;;;;1.17;0.80;;;;;;;11.60;79.98;101394.78;6029716;28;20088;-64
2022/09/02 02:06:35;;;;;;;2.42;0.75;;;;;;;11.53;79.55;101393.63;6036822;28;20778;-64
2022/09/02 02:09:30;;;;;;;2.33;1.08;;;;;;;11.76;79.26;101402.25;6041784;28;20115;-65
2022/09/02 02:12:25;;;;;;;2.03;0.95;;;;;;;11.52;79.64;101396.41;6037222;28;20038;-63
2022/09/02 02:15:21;;;;;;;0.83;0.60;;;;;;;11.56;79.81;101398.66;6046053;28;20033;-64
2022/09/02 02:18:16;;;;;;;2.00;1.00;;;;;;;11.47;80.03;101394.16;6045241;28;20287;-63
2022/09/02 02:21:12;;;;;;;2.50;1.00;;;;;;;11.48;80.29;101395.00;6037152;28;20181;-63
2022/09/02 02:24:07;;;;;;;1.60;0.95;;;;;;;11.45;80.12;101388.13;6045314;28;20034;-64
2022/09/02 02:27:03;;;;;;;1.73;1.00;;;;;;;11.45;80.21;101406.72;6039300;28;20400;-63
2022/09/02 02:29:59;;;;;;;3.58;1.20;;;;;;;11.41;80.83;101381.44;6043079;28;20046;-64
2022/09/02 02:32:55;;;;;;;1.73;0.90;;;;;;;11.37;81.03;101387.97;6045199;28;20107;-63
2022/09/02 02:35:51;;;;;;;1.15;0.88;;;;;;;11.38;80.50;101379.03;6060246;28;20054;-64
2022/09/02 02:38:46;;;;;;;2.30;1.02;;;;;;;11.36;80.59;101380.97;6044530;28;20041;-64
2022/09/02 02:41:41;;;;;;;1.87;1.10;;;;;;;11.42;80.53;101392.88;6037751;28;20478;-64
2022/09/02 02:44:38;;;;;;;5.50;1.00;;;;;;;11.23;81.64;101385.69;6038765;28;20277;-64
2022/09/02 02:47:33;;;;;;;2.13;0.80;;;;;;;11.31;81.59;101394.66;6038566;28;20288;-64
2022/09/02 02:50:29;;;;;;;2.83;0.90;;;;;;;11.27;81.32;101381.78;6038998;28;20034;-64
2022/09/02 02:53:24;;;;;;;1.70;1.20;;;;;;;11.46;81.14;101389.84;6041865;28;20495;-64
2022/09/02 02:56:20;;;;;;;3.03;1.35;;;;;;;11.32;81.37;101374.25;6048861;28;20037;-63
2022/09/02 02:59:15;;;;;;;2.63;1.10;;;;;;;11.33;81.58;101379.44;6045781;28;20026;-64
2022/09/02 03:02:10;;;;;;;2.00;0.90;;;;;;;11.19;81.96;101378.97;6046929;28;20307;-63
2022/09/02 03:05:07;;;;;;;1.53;0.97;;;;;;;11.25;82.59;101381.09;6049006;28;20030;-64
2022/09/02 03:08:07;;;;;;;2.83;1.58;;;;;;;11.09;82.92;101378.91;6049571;28;20101;-65
2022/09/02 03:11:05;;;;;;;3.33;1.13;;;;;;;11.14;82.73;101387.31;6034331;28;20121;-63
2022/09/02 03:14:01;;;;;;;1.92;1.00;;;;;;;11.08;83.48;101376.41;6047164;28;20069;-66
2022/09/02 03:16:56;;;;;;;2.50;1.10;;;;;;;11.01;83.48;101370.78;6035512;28;20099;-64
2022/09/02 03:19:52;;;;;;;1.90;1.20;;;;;;;10.94;83.98;101374.09;6042160;28;20753;-64
2022/09/02 03:22:49;;;;;;;3.08;1.20;;;;;;;10.81;84.12;101368.16;6038800;28;21014;-64
2022/09/02 03:25:44;;;;;;;1.15;0.98;;;;;;;10.77;84.60;101373.72;6047294;28;20469;-63
2022/09/02 03:28:40;;;;;;;2.20;1.17;;;;;;;10.85;84.37;101373.06;6043446;28;20079;-63
2022/09/02 03:31:36;;;;;;;3.22;1.15;;;;;;;10.80;84.61;101367.31;6044143;28;20030;-64
2022/09/02 03:34:32;;;;;;;5.32;1.33;;;;;;;10.93;84.42;101367.09;6048625;28;20638;-63
2022/09/02 03:37:27;;;;;;;3.72;1.27;;;;;;;10.76;84.88;101360.63;6048202;28;20041;-65
2022/09/02 03:40:25;;;;;;;2.08;1.30;;;;;;;10.64;85.25;101362.50;6036559;28;20048;-63
2022/09/02 03:43:20;;;;;;;3.00;1.30;;;;;;;10.69;85.38;101373.53;6045991;28;20520;-63
2022/09/02 03:46:16;;;;;;;3.47;1.13;;;;;;;10.61;86.01;101365.41;6045423;28;20030;-64
2022/09/02 03:49:12;;;;;;;2.33;1.15;;;;;;;10.58;86.19;101356.84;6048292;28;20117;-64
2022/09/02 03:52:07;;;;;;;5.70;1.40;;;;;;;10.67;86.18;101356.94;6039873;28;20062;-64
2022/09/02 03:55:03;;;;;;;2.03;1.27;;;;;;;10.54;86.29;101358.09;6041943;28;21048;-65
2022/09/02 03:57:59;;;;;;;2.28;1.10;;;;;;;10.50;86.14;101349.56;6038098;28;20081;-65
2022/09/02 04:00:54;;;;;;;2.50;1.20;;;;;;;10.49;86.40;101357.66;6042998;28;20040;-63
2022/09/02 04:03:50;;;;;;;3.47;1.40;;;;;;;10.56;86.48;101364.09;6035194;28;20057;-63
2022/09/02 04:06:45;;;;;;;3.90;1.60;;;;;;;10.43;86.74;101359.00;6047246;28;20308;-64
2022/09/02 04:09:40;;;;;;;1.73;1.17;;;;;;;10.45;86.99;101365.03;6039345;28;20045;-63
2022/09/02 04:12:36;;;;;;;1.93;1.20;;;;;;;10.47;86.88;101371.03;6044991;28;20389;-63
2022/09/02 04:15:31;;;;;;;2.17;1.23;;;;;;;10.46;87.13;101363.22;6048300;28;20120;-64
2022/09/02 04:18:26;;;;;;;4.17;1.10;;;;;;;10.40;86.89;101361.91;6036891;28;20037;-65
2022/09/02 04:21:23;;;;;;;2.37;1.37;;;;;;;10.42;87.32;101373.22;6034806;28;20026;-64
2022/09/02 04:24:18;;;;;;;2.83;1.40;;;;;;;10.38;87.07;101365.66;6038160;28;20045;-64
2022/09/02 04:27:14;;;;;;;3.50;2.00;;;;;;;10.38;87.11;101361.19;6046098;28;20038;-64
2022/09/02 04:30:09;;;;;;;13.07;3.63;;;;;;;10.25;87.42;101359.69;6047296;28;20070;-63
2022/09/02 04:33:05;;;;;;;9.50;3.30;;;;;;;10.22;87.07;101362.63;6035980;28;20022;-62
2022/09/02 04:36:04;;;;;;;10.10;3.80;;;;;;;10.18;87.96;101364.69;6047977;28;20046;-63
2022/09/02 04:39:00;;;;;;;14.40;3.95;;;;;;;10.15;88.25;101368.44;6045105;28;20141;-63
2022/09/02 04:41:55;;;;;;;7.27;3.07;;;;;;;10.19;88.27;101371.66;6045932;28;20050;-63
2022/09/02 04:44:53;;;;;;;8.43;3.15;;;;;;;10.17;87.88;101368.28;6037347;28;20026;-64
2022/09/02 04:47:48;;;;;;;5.57;2.50;;;;;;;10.26;88.20;101378.13;6039240;28;20038;-63
2022/09/02 04:50:44;;;;;;;4.43;1.90;;;;;;;10.28;88.45;101376.19;6039326;28;20033;-63
2022/09/02 04:53:40;;;;;;;4.05;1.60;;;;;;;10.23;88.41;101374.88;6037761;28;20029;-64
2022/09/02 04:56:37;;;;;;;3.05;1.52;;;;;;;10.14;88.40;101363.22;6037751;28;20120;-64
2022/09/02 04:59:35;;;;;;;2.95;1.40;;;;;;;10.17;88.67;101365.63;6046458;28;20033;-63
2022/09/02 05:02:30;;;;;;;3.33;1.40;;;;;;;10.16;88.70;101372.72;6046864;28;20029;-63
2022/09/02 05:05:25;;;;;;;3.27;1.60;;;;;;;10.21;88.49;101367.06;6039835;28;20477;-64
2022/09/02 05:08:22;;;;;;;2.63;1.37;;;;;;;10.22;88.52;101362.63;6024326;28;20037;-64
2022/09/02 05:11:20;;;;;;;5.65;1.90;;;;;;;10.25;88.61;101380.88;6043494;28;20417;-64
2022/09/02 05:14:15;;;;;;;3.17;1.42;;;;;;;10.21;88.37;101363.56;6040437;28;20040;-64
2022/09/02 05:17:12;;;;;;;2.83;1.37;;;;;;;10.25;88.52;101357.03;6046529;28;20109;-65
2022/09/02 05:20:09;;;;;;;2.75;1.35;;;;;;;10.34;87.91;101349.16;6045586;28;20280;-64
2022/09/02 05:23:05;;;;;;;1.98;1.15;;;;;;;10.43;87.58;101352.88;6046335;28;20140;-64
2022/09/02 05:26:05;;;;;;;2.95;1.67;;;;;;;10.56;87.58;101364.94;6047094;28;20036;-64
2022/09/02 05:29:02;;;;;;;3.42;1.60;;;;;;;10.93;86.22;101367.09;6037386;28;20030;-63
2022/09/02 05:31:57;;;;;;;2.83;1.48;;;;;;;11.61;83.93;101345.97;6045052;28;20042;-64
2022/09/02 05:34:54;;;;;;;5.88;1.42;;;;;;;11.60;81.65;101335.47;6046223;28;20109;-64
2022/09/02 05:37:50;;;;;;;2.85;1.33;;;;;;;11.56;81.42;101356.16;6046549;28;20034;-63
2022/09/02 05:40:45;;;;;;;3.70;1.30;;;;;;;11.81;81.28;101345.06;6039318;28;20038;-63
2022/09/02 05:43:43;;;;;;;3.13;2.10;;;;;;;12.19;80.26;101354.00;6045958;28;20034;-64
2022/09/02 05:46:38;;;;;;;4.55;1.63;;;;;;;12.25;79.41;101354.31;6045910;28;20616;-64
2022/09/02 05:49:33;;;;;;;6.40;1.60;;;;;;;12.38;78.57;101354.00;6042071;28;20065;-64
2022/09/02 05:52:30;;;;;;;2.90;1.40;;;;;;;12.70;78.03;101349.16;6036704;28;20037;-63
2022/09/02 05:55:25;;;;;;;4.93;1.50;;;;;;;13.09;75.19;101345.44;6043758;28;20535;-63
2022/09/02 05:58:20;;;;;;;5.10;1.73;;;;;;;13.30;73.61;101347.00;6044648;28;20034;-63
2022/09/02 06:01:18;;;;;;;4.87;1.40;;;;;;;13.56;74.08;101350.66;6041859;28;20113;-63
2022/09/02 06:04:14;;;;;;;2.15;1.27;;;;;;;13.53;73.75;101338.47;6041791;28;20037;-63
2022/09/02 06:07:12;;;;;;;3.05;1.33;;;;;;;13.63;73.85;101343.75;6034979;28;20057;-63
2022/09/02 06:10:07;;;;;;;4.30;1.67;;;;;;;13.53;73.22;101351.78;6034546;28;20396;-63
2022/09/02 06:13:03;;;;;;;2.60;1.40;;;;;;;13.84;73.08;101338.97;6040776;28;20034;-63
2022/09/02 06:15:58;;;;;;;5.60;1.50;;;;;;;13.70;73.38;101347.47;6044115;28;20041;-62
2022/09/02 06:18:53;;;;;;;6.03;1.40;;;;;;;13.46;74.87;101352.53;6039680;28;20042;-63
2022/09/02 06:21:49;;;;;;;4.40;1.60;;;;;;;13.80;73.51;101350.09;6041526;28;20029;-63
2022/09/02 06:24:44;;;;;;;3.40;1.27;;;;;;;14.09;72.60;101351.53;6044150;28;20561;-64
2022/09/02 06:27:39;;;;;;;2.37;1.77;;;;;;;13.83;73.32;101350.63;6044300;28;20037;-64
2022/09/02 06:30:37;;;;;;;2.93;1.33;;;;;;;13.86;72.63;101342.31;6039665;28;20064;-65
2022/09/02 06:33:33;;;;;;;4.88;1.77;;;;;;;14.22;71.83;101346.66;6040725;28;20454;-64
2022/09/02 06:36:28;;;;;;;3.10;1.37;;;;;;;14.51;71.45;101350.91;6043378;28;20034;-62
2022/09/02 06:39:24;;;;;;;3.88;1.70;;;;;;;15.15;69.38;101350.47;6041736;28;20030;-64
2022/09/02 06:42:20;;;;;;;2.40;1.20;;;;;;;15.20;67.98;101350.81;6043384;28;20108;-64
2022/09/02 06:45:15;;;;;;;1.92;1.27;;;;;;;15.06;68.08;101346.06;6045008;28;20034;-64
2022/09/02 06:48:11;;;;;;;2.53;1.30;;;;;;;15.11;69.84;101349.13;6044860;28;20037;-64
2022/09/02 06:51:06;;;;;;;2.15;1.20;;;;;;;15.57;67.26;101355.84;6045294;28;20033;-63
2022/09/02 06:54:03;;;;;;;5.40;1.50;;;;;;;15.64;65.91;101357.69;6043501;28;20485;-64
2022/09/02 06:56:58;;;;;;;3.63;1.30;;;;;;;15.31;67.44;101343.34;6039314;28;20371;-64
2022/09/02 06:59:55;;;;;;;5.30;1.30;;;;;;;15.75;65.64;101348.53;6042928;28;20029;-64
2022/09/02 07:05:08;;;;;;;4.28;1.23;;;;;;;15.75;66.84;101337.84;6041505;28;20034;-63
2022/09/02 07:06:08;;;;;;;2.70;1.38;;;;;;;15.83;65.74;101349.38;6040583;28;20026;-63
2022/09/02 07:09:05;;;;;;;4.32;1.58;;;;;;;15.68;66.47;101347.53;6039544;28;20034;-65
2022/09/02 07:12:02;;;;;;;2.58;1.45;;;;;;;15.58;66.40;101346.81;6039812;28;20525;-64
2022/09/02 07:14:58;;;;;;;2.83;1.30;;;;;;;15.84;66.33;101352.91;6045519;28;20718;-64
2022/09/02 07:17:53;;;;;;;2.07;1.37;;;;;;;16.39;64.98;101353.94;6035107;28;20092;-63
2022/09/02 07:20:49;;;;;;;2.97;1.37;;;;;;;16.72;63.70;101359.28;6044123;28;20117;-64
2022/09/02 07:23:45;;;;;;;3.53;1.50;;;;;;;16.62;63.06;101338.91;6044499;28;20064;-64
2022/09/02 07:26:40;;;;;;;3.57;1.67;;;;;;;16.88;62.72;101353.91;6045478;28;20034;-65
2022/09/02 07:29:36;;;;;;;2.95;1.30;;;;;;;16.92;62.63;101356.09;6040811;28;20109;-64
2022/09/02 07:32:32;;;;;;;4.55;1.60;;;;;;;16.98;62.40;101357.25;6044064;28;20065;-64
2022/09/02 07:35:28;;;;;;;5.07;1.30;;;;;;;16.96;62.17;101357.41;6038249;28;20049;-64
2022/09/02 07:38:23;;;;;;;3.42;1.40;;;;;;;17.14;61.56;101355.34;6044784;28;20540;-64
2022/09/02 07:41:19;;;;;;;2.70;1.07;;;;;;;17.28;61.18;101335.84;6048652;28;20084;-64
2022/09/02 07:44:15;;;;;;;2.67;1.30;;;;;;;17.67;59.29;101341.22;6045539;28;20030;-64
2022/09/02 07:47:11;;;;;;;2.40;1.10;;;;;;;17.62;59.75;101354.31;6049350;28;20076;-64
2022/09/02 07:50:06;;;;;;;3.17;1.30;;;;;;;17.69;59.32;101349.91;6047186;28;20132;-63
2022/09/02 07:53:05;;;;;;;3.63;1.10;;;;;;;18.05;58.36;101339.44;6049263;28;20041;-64
2022/09/02 07:56:00;;;;;;;6.10;1.38;;;;;;;18.06;57.58;101346.50;6046198;28;20551;-63
2022/09/02 07:58:55;;;;;;;4.35;1.23;;;;;;;18.22;57.76;101340.16;6042875;28;20040;-63
2022/09/02 08:01:52;;;;;;;2.92;1.13;;;;;;;18.58;56.03;101327.78;6041032;28;20043;-63
2022/09/02 08:04:47;;;;;;;2.92;1.27;;;;;;;18.15;56.55;101339.22;6048017;28;20026;-64
2022/09/02 08:07:43;;;;;;;5.80;1.30;;;;;;;18.35;56.48;101348.44;6048905;28;20121;-63
2022/09/02 08:10:38;;;;;;;2.33;1.10;;;;;;;18.46;55.35;101339.94;6045462;28;20034;-64
2022/09/02 08:13:38;;;;;;;5.88;1.63;;;;;;;18.51;55.17;101340.25;6047715;28;20275;-65
2022/09/02 08:16:33;;;;;;;3.28;1.23;;;;;;;18.89;53.99;101333.81;6048842;28;20406;-63
2022/09/02 08:19:28;;;;;;;2.97;1.25;;;;;;;18.96;53.87;101345.53;6040421;28;20061;-64
2022/09/02 08:22:24;;;;;;;2.43;1.10;;;;;;;18.90;53.64;101338.19;6048144;28;20057;-65
2022/09/02 08:25:20;;;;;;;2.97;1.10;;;;;;;19.19;53.28;101339.19;6047851;28;20517;-64
2022/09/02 08:28:15;;;;;;;3.50;1.20;;;;;;;19.29;53.03;101337.06;6041991;28;20042;-64
2022/09/02 08:31:10;;;;;;;5.40;1.30;;;;;;;19.22;52.87;101333.44;6039664;28;20079;-64
2022/09/02 08:34:06;;;;;;;4.50;1.20;;;;;;;19.42;52.82;101334.56;6038844;28;20045;-62
2022/09/02 08:37:01;;;;;;;4.70;0.90;;;;;;;19.91;51.42;101330.19;6042374;28;20269;-63
2022/09/02 08:39:56;;;;;;;4.83;1.10;;;;;;;19.89;51.26;101326.00;6040251;28;20057;-63
2022/09/02 08:42:55;;;;;;;3.85;1.20;;;;;;;19.70;51.24;101316.72;6046434;28;20072;-63
2022/09/02 08:45:53;;;;;;;5.00;1.40;;;;;;;19.91;51.50;101330.19;6047293;28;20072;-64
2022/09/02 08:48:59;;;;;;;4.38;1.20;;;;;;;20.18;50.40;101318.63;6047830;28;20381;-65
2022/09/02 08:51:56;;;;;;;;;;;;;;;20.35;48.85;101318.38;6046338;28;20832;-65
2022/09/02 08:54:56;;;;;;;2.22;1.10;;;;;;;20.34;48.99;101304.06;6062869;28;19916;-64
2022/09/02 08:57:55;;;;;;;2.28;1.10;;;;;;;20.56;48.94;101307.56;6051355;28;20068;-64
2022/09/02 09:01:03;;;;;;;2.33;1.20;;;;;;;20.42;48.78;101308.47;6046060;28;20038;-64
2022/09/02 09:04:16;;;;;;;3.90;1.17;;;;;;;20.44;48.85;101292.94;6047712;28;20053;-63
2022/09/02 09:07:30;;;;;;;2.50;1.02;;;;;;;20.57;48.45;101303.84;6060027;28;20440;-64
2022/09/02 09:10:47;;;;;;;2.65;1.02;;;;;;;20.57;48.12;101314.63;6043987;28;20116;-65
2022/09/02 09:13:54;;;;;;;2.47;1.20;;;;;;;20.86;47.41;101309.00;6039586;28;20034;-64
2022/09/02 09:16:57;;;;;;;2.00;1.00;;;;;;;20.92;47.85;101292.03;6038396;28;20392;-65
2022/09/02 09:19:57;;;;;;;2.75;1.00;;;;;;;21.28;45.88;101292.63;6046916;28;20052;-64
2022/09/02 09:22:55;;;;;;;5.60;1.10;;;;;;;21.39;45.45;101287.72;6044870;28;20038;-66
2022/09/02 09:25:55;;;;;;;3.85;1.10;;;;;;;21.54;44.92;101286.50;6046277;28;20049;-66
2022/09/02 09:28:50;;;;;;;2.20;1.10;;;;;;;21.60;44.38;101280.31;6044874;28;20041;-65
2022/09/02 09:31:53;;;;;;;0.98;0.80;;;;;;;21.71;43.12;101278.88;6040735;28;20034;-64
2022/09/02 09:34:51;;;;;;;2.00;1.20;;;;;;;21.75;43.95;101289.03;6046583;28;20029;-64
2022/09/02 09:37:50;;;;;;;2.40;0.93;;;;;;;21.49;44.74;101282.75;6046494;28;20615;-64
2022/09/02 09:40:46;;;;;;;3.60;0.80;;;;;;;21.90;43.92;101278.09;6044298;28;20925;-64
2022/09/02 09:43:41;;;;;;;4.87;1.00;;;;;;;21.70;41.57;101266.41;6045459;28;20038;-64
2022/09/02 09:46:36;;;;;;;3.88;0.95;;;;;;;21.84;41.65;101265.38;6045328;28;20049;-64
2022/09/02 09:49:35;;;;;;;3.13;1.10;;;;;;;22.21;39.19;101272.91;6045146;28;20022;-66
2022/09/02 09:52:30;;;;;;;3.45;0.90;;;;;;;21.88;39.86;101261.25;6045761;28;20026;-65
2022/09/02 09:55:26;;;;;;;9.77;1.10;;;;;;;21.70;40.43;101250.19;6045064;28;20127;-64
2022/09/02 09:58:23;;;;;;;9.80;1.50;;;;;;;21.53;40.24;101257.00;6046094;28;20062;-65
2022/09/02 10:01:30;;;;;;;6.32;0.93;;;;;;;21.92;39.01;101257.94;6044235;28;20461;-65
2022/09/02 10:04:30;;;;;;;2.30;0.90;;;;;;;22.03;38.85;101253.78;6045323;28;20069;-65
2022/09/02 10:07:35;;;;;;;1.60;0.82;;;;;;;22.36;38.10;101240.28;6045669;28;20476;-64
2022/09/02 10:10:32;;;;;;;2.42;0.82;;;;;;;22.09;37.55;101252.97;6043187;28;20740;-64
2022/09/02 10:13:35;;;;;;;1.40;0.80;;;;;;;22.07;37.00;101244.22;6039267;28;20034;-64
2022/09/02 10:16:38;;;;;;;3.63;0.90;;;;;;;22.31;37.05;101251.69;6044135;28;20354;-65
2022/09/02 10:19:45;;;;;;;3.08;0.90;;;;;;;22.13;36.28;101251.50;6044867;28;20116;-66
2022/09/02 10:22:46;;;;;;;1.92;0.90;;;;;;;22.32;36.72;101229.03;6044997;28;20026;-64
2022/09/02 10:25:54;;;;;;;3.05;0.88;;;;;;;22.32;37.71;101241.72;6045138;28;20030;-65
2022/09/02 10:29:07;;;;;;;4.68;1.15;;;;;;;22.72;37.08;101243.31;6044359;28;20045;-64
2022/09/02 10:32:17;;;;;;;2.70;0.75;;;;;;;23.04;35.41;101225.34;6043200;28;20045;-65
2022/09/02 10:35:25;;;;;;;2.30;0.90;;;;;;;23.03;34.76;101229.06;6060212;28;20068;-65
2022/09/02 10:38:36;;;;;;;1.63;0.80;;;;;;;22.84;34.46;101224.56;6044630;28;20033;-64
2022/09/02 10:41:45;;;;;;;1.85;0.90;;;;;;;22.78;35.46;101214.59;6053943;28;20030;-64
2022/09/02 10:44:51;;;;;;;2.10;0.90;;;;;;;23.08;35.23;101211.16;6044553;28;20496;-63
2022/09/02 10:48:00;;;;;;;5.00;1.15;;;;;;;22.74;35.18;101213.38;6043918;28;20432;-64
2022/09/02 10:51:22;;;;;;;3.83;1.00;;;;;;;23.20;34.42;101216.72;6043428;28;20041;-64
2022/09/02 10:54:33;;;;;;;2.35;0.80;;;;;;;23.08;34.27;101221.13;6039975;28;20057;-64
2022/09/02 10:57:32;;;;;;;1.58;0.68;;;;;;;22.93;34.65;101213.31;6044664;28;20038;-65
2022/09/02 11:00:29;;;;;;;2.80;0.95;;;;;;;23.09;34.16;101193.88;6043798;28;20068;-64
2022/09/02 11:03:32;;;;;;;1.42;0.70;;;;;;;23.43;33.29;101191.81;6052696;28;20038;-65
2022/09/02 11:06:36;;;;;;;4.22;1.00;;;;;;;23.16;34.11;101207.34;6035823;28;20035;-66
2022/09/02 11:09:36;;;;;;;3.45;0.98;;;;;;;23.28;34.32;101199.38;6032251;28;20030;-65
2022/09/02 11:12:32;;;;;;;;;;;;;;;23.19;33.94;101211.50;6035250;28;20034;-65
2022/09/02 11:15:44;;;;;;;2.13;0.90;;;;;;;22.92;33.58;101186.47;6060195;28;20357;-65
2022/09/02 11:18:50;;;;;;;2.00;0.82;;;;;;;22.87;33.70;101191.69;6065140;28;20092;-65
2022/09/02 11:22:01;;;;;;;2.25;0.90;;;;;;;22.93;34.38;101180.00;6060699;28;20042;-64
2022/09/02 11:25:07;;;;;;;2.95;1.10;;;;;;;23.30;33.93;101165.63;6046066;28;20743;-64
2022/09/02 11:28:27;;;;;;;2.35;1.13;;;;;;;23.04;33.99;101160.41;6048694;28;20378;-64
2022/09/02 11:31:50;;;;;;;3.85;0.80;;;;;;;23.01;34.14;101177.06;6048967;28;20384;-65
2022/09/02 11:34:48;;;;;;;3.75;1.00;;;;;;;23.37;33.17;101150.19;6047648;28;20037;-66
2022/09/02 11:38:20;;;;;;;3.22;1.10;;;;;;;23.31;32.98;101167.31;6042370;28;20108;-65
2022/09/02 11:41:35;;;;;;;3.45;0.93;;;;;;;23.24;32.92;101160.28;6040583;28;20045;-64
2022/09/02 11:44:33;;;;;;;4.80;1.08;;;;;;;23.52;32.72;101169.69;6048694;28;20527;-65
2022/09/02 11:47:40;;;;;;;2.58;1.17;;;;;;;23.40;33.46;101165.22;6049193;28;20125;-65
2022/09/02 11:50:47;;;;;;;3.05;1.13;;;;;;;23.89;32.97;101145.44;6048676;28;20370;-64
2022/09/02 11:53:44;;;;;;;4.70;1.02;;;;;;;23.97;32.42;101147.88;6041071;28;20070;-65
2022/09/02 11:56:42;;;;;;;3.65;1.10;;;;;;;24.15;32.12;101156.88;6049392;28;20109;-65
2022/09/02 11:59:50;;;;;;;3.40;0.93;;;;;;;24.48;31.91;101164.66;6057331;28;20041;-64
2022/09/02 12:02:49;;;;;;;5.93;1.10;;;;;;;24.23;32.70;101163.88;6046883;28;20508;-65
2022/09/02 12:05:46;;;;;;;2.55;0.90;;;;;;;23.67;32.04;101153.94;6028510;28;20045;-65
2022/09/02 12:08:42;;;;;;;3.55;0.90;;;;;;;23.84;32.47;101150.66;6043057;28;20030;-66
2022/09/02 12:11:44;;;;;;;4.85;1.33;;;;;;;24.08;31.57;101147.13;6039635;28;20064;-65
2022/09/02 12:14:45;;;;;;;4.07;1.02;;;;;;;24.06;32.25;101155.47;6041320;28;20026;-64
2022/09/02 12:17:46;;;;;;;2.65;0.90;;;;;;;24.20;31.34;101145.34;6044558;28;20030;-65
2022/09/02 12:20:41;;;;;;;3.05;1.30;;;;;;;24.40;31.64;101140.56;6034432;28;20066;-65
2022/09/02 12:23:52;;;;;;;2.47;0.93;;;;;;;24.11;31.43;101146.69;6043108;28;20062;-64
2022/09/02 12:26:47;;;;;;;1.80;0.90;;;;;;;24.22;31.80;101140.53;6043206;28;20034;-65
2022/09/02 12:29:44;;;;;;;7.55;1.17;;;;;;;24.33;31.94;101136.22;6040039;28;20045;-65
2022/09/02 12:32:45;;;;;;;2.92;1.20;;;;;;;24.30;31.19;101126.66;6031137;28;20041;-65
2022/09/02 12:35:48;;;;;;;3.15;0.98;;;;;;;24.68;31.22;101118.28;6043059;28;20034;-64
2022/09/02 12:38:44;;;;;;;4.53;1.02;;;;;;;24.74;30.66;101118.22;6045178;28;20037;-65
2022/09/02 12:41:43;;;;;;;2.43;0.93;;;;;;;24.63;30.63;101116.25;6033900;28;20076;-65
2022/09/02 12:44:53;;;;;;;8.30;1.30;;;;;;;24.04;31.46;101108.78;6045139;28;20516;-65
2022/09/02 12:47:57;;;;;;;4.20;0.90;;;;;;;24.36;31.37;101106.78;6040726;28;20052;-65
2022/09/02 12:50:57;;;;;;;3.53;0.95;;;;;;;24.19;30.99;101103.84;6039201;28;20045;-64
2022/09/02 12:53:52;;;;;;;3.78;1.10;;;;;;;24.50;30.97;101099.31;6052654;28;20048;-65
2022/09/02 12:56:48;;;;;;;3.22;1.30;;;;;;;23.89;31.67;101092.06;6031325;28;20034;-64
2022/09/02 12:59:45;;;;;;;3.25;1.10;;;;;;;23.81;31.37;101086.13;6034161;28;20033;-64
2022/09/02 13:03:16;;;;;;;2.72;1.15;;;;;;;24.01;31.12;101105.69;6040134;28;20030;-66
2022/09/02 13:06:20;;;;;;;1.77;1.00;;;;;;;24.04;31.16;101094.41;6025418;28;20489;-65
2022/09/02 13:09:49;;;;;;;3.05;1.08;;;;;;;24.59;29.96;101095.25;6046684;28;20457;-65
2022/09/02 13:13:22;;;;;;;3.13;1.00;;;;;;;24.37;29.26;101086.78;6045823;28;20038;-65
2022/09/02 13:16:32;;;;;;;2.90;1.10;;;;;;;24.14;29.47;101075.75;6043298;28;20026;-65
2022/09/02 13:19:51;;;;;;;7.05;1.05;;;;;;;23.66;31.38;101079.16;6034203;28;20037;-65
2022/09/02 13:22:59;;;;;;;1.67;1.00;;;;;;;22.88;32.75;101082.44;6046521;28;20030;-65
2022/09/02 13:26:24;;;;;;;2.00;0.90;;;;;;;22.93;32.64;101080.75;6045953;28;20101;-65
2022/09/02 13:29:19;;;;;;;8.07;1.23;;;;;;;22.80;33.28;101077.28;6057449;28;20034;-66
2022/09/02 13:32:22;;;;;;;4.32;0.90;;;;;;;22.82;33.78;101067.91;6039144;28;20041;-64
2022/09/02 13:35:20;;;;;;;4.38;0.80;;;;;;;23.65;32.40;101072.06;6046289;28;20030;-65
2022/09/02 13:38:22;;;;;;;2.03;1.05;;;;;;;24.36;31.96;101073.44;6037102;28;20108;-65
2022/09/02 13:41:31;;;;;;;1.63;0.75;;;;;;;24.69;30.79;101047.53;6045011;28;20125;-65
2022/09/02 13:44:30;;;;;;;2.60;0.77;;;;;;;23.98;31.57;101050.06;6044496;28;20092;-65
2022/09/02 13:47:26;;;;;;;2.22;0.90;;;;;;;23.79;32.17;101058.41;6041903;28;20126;-64
2022/09/02 13:50:26;;;;;;;3.15;1.27;;;;;;;23.44;32.20;101058.94;6045399;28;20220;-65
2022/09/02 13:53:36;;;;;;;2.65;0.70;;;;;;;24.15;31.76;101061.16;6045354;28;20734;-65
2022/09/02 13:56:31;;;;;;;2.33;1.00;;;;;;;24.51;30.77;101039.44;6045636;28;20535;-65